createdAt,value
2023-02-02T00:04:16.580Z,2.31
2023-02-02T00:08:14.545Z,2.34
2023-02-02T00:12:13.551Z,2.38
2023-02-02T00:16:11.515Z,2.40
2023-02-02T00:20:09.657Z,2.43
2023-02-02T00:24:08.549Z,2.41
2023-02-02T00:28:06.528Z,2.41
2023-02-02T00:32:04.469Z,2.42
2023-02-02T00:36:02.829Z,2.42
2023-02-02T00:40:00.475Z,2.40
2023-02-02T00:44:18.516Z,2.40
2023-02-02T00:48:17.455Z,2.42
2023-02-02T00:52:15.487Z,2.41
2023-02-02T00:56:13.472Z,2.41
2023-02-02T01:00:11.549Z,2.41
2023-02-02T01:04:09.477Z,2.40
2023-02-02T01:08:07.450Z,2.40
2023-02-02T01:12:05.435Z,2.39
2023-02-02T01:16:03.532Z,2.40
2023-02-02T01:20:01.443Z,2.40
2023-02-02T01:23:59.735Z,2.41
2023-02-02T01:27:57.406Z,2.42
2023-02-02T01:31:55.510Z,2.40
2023-02-02T01:36:03.429Z,2.41
2023-02-02T01:40:01.409Z,2.40
2023-02-02T01:44:00.424Z,2.39
2023-02-02T01:48:04.496Z,2.39
2023-02-02T01:52:09.375Z,2.38
2023-02-02T01:56:07.418Z,2.39
2023-02-02T02:00:08.375Z,2.37
2023-02-02T02:04:06.443Z,2.37
2023-02-02T02:08:06.315Z,2.37
2023-02-02T02:12:04.367Z,2.39
2023-02-02T02:16:29.434Z,2.41
2023-02-02T02:21:30.414Z,2.43
2023-02-02T02:26:03.338Z,2.46
2023-02-02T02:30:20.442Z,2.49
2023-02-02T02:34:26.351Z,2.52
2023-02-02T02:38:59.370Z,2.55
2023-02-02T02:43:04.312Z,2.58
2023-02-02T02:47:04.313Z,2.61
2023-02-02T02:51:04.289Z,2.64
2023-02-02T02:55:08.333Z,2.66
2023-02-02T02:59:32.275Z,2.68
2023-02-02T03:03:39.308Z,2.71
2023-02-02T03:07:43.317Z,2.72
2023-02-02T03:11:42.303Z,2.72
2023-02-02T03:15:40.384Z,2.72
2023-02-02T03:19:38.387Z,2.70
2023-02-02T03:23:36.249Z,2.68
2023-02-02T03:27:34.351Z,2.63
2023-02-02T03:31:33.285Z,2.59
2023-02-02T03:35:32.316Z,2.53
2023-02-02T03:39:30.247Z,2.51
2023-02-02T03:43:28.268Z,2.52
2023-02-02T03:47:26.216Z,2.53
2023-02-02T03:51:29.264Z,2.54
2023-02-02T03:55:27.219Z,2.55
2023-02-02T03:59:26.266Z,2.56
2023-02-02T04:03:26.293Z,2.58
2023-02-02T04:07:25.203Z,2.59
2023-02-02T04:11:26.263Z,2.60
2023-02-02T04:15:25.571Z,2.60
2023-02-02T04:19:23.191Z,2.58
2023-02-02T04:23:21.298Z,2.56
2023-02-02T04:27:19.148Z,2.53
2023-02-02T04:31:17.241Z,2.51
2023-02-02T04:35:15.172Z,2.48
2023-02-02T04:39:13.238Z,2.46
2023-02-02T04:43:12.216Z,2.45
2023-02-02T04:47:10.196Z,2.44
2023-02-02T04:51:14.158Z,2.43
2023-02-02T04:55:13.186Z,2.41
2023-02-02T04:59:11.135Z,2.38
2023-02-02T05:03:09.115Z,2.35
2023-02-02T05:07:08.121Z,2.34
2023-02-02T05:11:07.193Z,2.33
2023-02-02T05:15:07.158Z,2.31
2023-02-02T05:19:11.231Z,2.32
2023-02-02T05:23:10.137Z,2.34
2023-02-02T05:27:08.140Z,2.35
2023-02-02T05:31:06.123Z,2.38
2023-02-02T05:35:04.088Z,2.41
2023-02-02T05:39:02.052Z,2.44
2023-02-02T05:43:03.112Z,2.47
2023-02-02T05:47:01.066Z,2.50
2023-02-02T05:51:20.157Z,2.53
2023-02-02T05:55:18.040Z,2.57
2023-02-02T05:59:16.135Z,2.59
2023-02-02T06:03:16.242Z,2.63
2023-02-02T06:07:14.111Z,2.65
2023-02-02T06:11:12.013Z,2.68
2023-02-02T06:15:10.096Z,2.69
2023-02-02T06:19:08.069Z,2.70
2023-02-02T06:23:06.057Z,2.73
2023-02-02T06:27:04.035Z,2.76
2023-02-02T06:31:02.130Z,2.79
2023-02-02T06:34:59.985Z,2.82
2023-02-02T06:38:58.002Z,2.85
2023-02-02T06:42:56.020Z,2.87
2023-02-02T06:46:54.018Z,2.91
2023-02-02T06:50:52.969Z,2.94
2023-02-02T06:54:50.983Z,2.96
2023-02-02T06:58:50.086Z,3.00
2023-02-02T07:02:27.634Z,3.01
2023-02-02T07:05:52.092Z,3.04
2023-02-02T07:09:15.947Z,3.06
2023-02-02T07:12:40.932Z,3.08
2023-02-02T07:16:09.564Z,3.11
2023-02-02T07:19:36.101Z,3.15
2023-02-02T07:23:00.117Z,3.20
2023-02-02T07:26:23.954Z,3.25
2023-02-02T07:29:49.179Z,3.31
2023-02-02T07:33:13.205Z,3.38
2023-02-02T07:36:37.117Z,3.42
2023-02-02T07:40:01.016Z,3.48
2023-02-02T07:43:25.005Z,3.55
2023-02-02T07:46:49.308Z,3.62
2023-02-02T07:50:13.337Z,3.70
2023-02-02T07:53:37.553Z,3.79
2023-02-02T07:57:02.327Z,3.89
2023-02-02T08:00:27.551Z,3.93
2023-02-02T08:03:51.728Z,3.96
2023-02-02T08:07:15.623Z,3.98
2023-02-02T08:10:39.612Z,4.01
2023-02-02T08:14:05.306Z,3.99
2023-02-02T08:17:29.426Z,3.98
2023-02-02T08:20:53.694Z,4.02
2023-02-02T08:24:21.077Z,4.08
2023-02-02T08:27:44.956Z,4.17
2023-02-02T08:31:12.878Z,4.34
2023-02-02T08:34:37.213Z,4.53
2023-02-02T08:38:03.260Z,4.65
2023-02-02T08:41:27.070Z,4.76
2023-02-02T08:46:12.664Z,4.86
2023-02-02T08:48:38.801Z,4.95
2023-02-02T08:52:03.072Z,4.94
2023-02-02T08:55:27.137Z,4.93
2023-02-02T08:58:59.754Z,4.92
2023-02-02T09:02:23.727Z,4.91
2023-02-02T09:05:47.783Z,4.87
2023-02-02T09:09:14.815Z,4.79
2023-02-02T09:12:38.865Z,4.70
2023-02-02T09:16:04.601Z,4.64
2023-02-02T09:19:29.534Z,4.54
2023-02-02T09:22:57.165Z,4.40
2023-02-02T09:26:24.334Z,4.32
2023-02-02T09:29:48.937Z,4.31
2023-02-02T09:33:12.832Z,4.32
2023-02-02T09:36:38.242Z,4.36
2023-02-02T09:40:03.234Z,4.41
2023-02-02T09:43:53.496Z,4.42
2023-02-02T09:47:48.549Z,4.42
2023-02-02T09:51:20.110Z,4.39
2023-02-02T09:54:48.030Z,4.34
2023-02-02T09:58:36.160Z,4.30
2023-02-02T10:02:14.091Z,4.25
2023-02-02T10:05:51.560Z,4.25
2023-02-02T10:09:43.999Z,4.25
2023-02-02T10:13:17.194Z,4.24
2023-02-02T10:16:42.319Z,4.26
2023-02-02T10:20:44.949Z,4.29
2023-02-02T10:24:25.771Z,4.31
2023-02-02T10:28:19.988Z,4.33
2023-02-02T10:32:12.007Z,4.42
2023-02-02T10:35:47.571Z,4.48
2023-02-02T10:39:27.234Z,4.53
2023-02-02T10:43:17.699Z,4.52
2023-02-02T10:46:46.800Z,4.53
2023-02-02T10:50:13.524Z,4.56
2023-02-02T10:53:38.096Z,4.57
2023-02-02T10:57:04.061Z,4.54
2023-02-02T11:00:46.798Z,4.54
2023-02-02T11:04:29.768Z,4.48
2023-02-02T11:07:55.753Z,4.46
2023-02-02T11:11:30.791Z,4.47
2023-02-02T11:15:05.429Z,4.52
2023-02-02T11:18:31.838Z,4.61
2023-02-02T11:21:57.998Z,4.70
2023-02-02T11:25:32.332Z,4.79
2023-02-02T11:28:59.977Z,4.86
2023-02-02T11:32:27.665Z,4.91
2023-02-02T11:36:22.159Z,4.97
2023-02-02T11:39:46.063Z,5.03
2023-02-02T11:43:30.344Z,5.00
2023-02-02T11:46:56.945Z,4.98
2023-02-02T11:50:25.598Z,5.00
2023-02-02T11:53:51.087Z,5.01
2023-02-02T11:57:20.074Z,4.96
2023-02-02T12:00:49.046Z,4.91
2023-02-02T12:04:19.185Z,4.87
2023-02-02T12:07:45.340Z,4.92
2023-02-02T12:11:25.773Z,4.97
2023-02-02T12:15:12.927Z,5.00
2023-02-02T12:19:01.986Z,5.00
2023-02-02T12:22:41.408Z,4.96
2023-02-02T12:26:28.669Z,4.90
2023-02-02T12:30:16.979Z,4.93
2023-02-02T12:33:53.151Z,5.02
2023-02-02T12:37:32.183Z,5.01
2023-02-02T12:41:04.235Z,4.93
2023-02-02T12:44:43.748Z,4.84
2023-02-02T12:48:19.637Z,4.77
2023-02-02T12:52:02.897Z,4.72
2023-02-02T12:55:41.520Z,4.71
2023-02-02T12:59:41.456Z,4.66
2023-02-02T13:03:27.316Z,4.58
2023-02-02T13:07:06.171Z,4.53
2023-02-02T13:10:53.433Z,4.49
2023-02-02T13:14:29.814Z,4.41
2023-02-02T13:18:00.613Z,4.34
2023-02-02T13:21:29.111Z,4.26
2023-02-02T13:24:56.841Z,4.17
2023-02-02T13:28:55.307Z,4.11
2023-02-02T13:32:41.377Z,4.03
2023-02-02T13:36:14.879Z,3.95
2023-02-02T13:39:49.049Z,3.88
2023-02-02T13:43:20.648Z,3.83
2023-02-02T13:46:57.618Z,3.78
2023-02-02T13:50:30.200Z,3.75
2023-02-02T13:54:28.642Z,3.72
2023-02-02T13:58:13.480Z,3.67
2023-02-02T14:01:39.431Z,3.67
2023-02-02T14:05:08.030Z,3.63
2023-02-02T14:08:33.360Z,3.56
2023-02-02T14:12:04.251Z,3.54
2023-02-02T14:15:44.791Z,3.54
2023-02-02T14:19:36.943Z,3.50
2023-02-02T14:23:01.049Z,3.43
2023-02-02T14:26:47.842Z,3.37
2023-02-02T14:30:36.492Z,3.33
2023-02-02T14:34:49.375Z,3.35
2023-02-02T14:39:19.476Z,3.37
2023-02-02T14:43:56.372Z,3.34
2023-02-02T14:48:00.672Z,3.29
2023-02-02T14:52:03.491Z,3.20
2023-02-02T14:56:12.603Z,3.15
2023-02-02T15:00:11.428Z,3.13
2023-02-02T15:04:11.511Z,3.15
2023-02-02T15:08:20.275Z,3.14
2023-02-02T15:12:18.325Z,3.11
2023-02-02T15:16:36.363Z,3.07
2023-02-02T15:20:56.427Z,2.99
2023-02-02T15:25:02.600Z,2.93
2023-02-02T15:29:20.849Z,2.89
2023-02-02T15:33:32.307Z,2.75
2023-02-02T15:37:35.283Z,2.65
2023-02-02T15:41:39.258Z,2.60
2023-02-02T15:46:05.339Z,2.54
2023-02-02T15:50:03.373Z,2.54
2023-02-02T15:54:04.260Z,2.53
2023-02-02T15:58:02.308Z,2.49
2023-02-02T16:02:05.436Z,2.47
2023-02-02T16:05:54.852Z,2.44
2023-02-02T16:09:34.127Z,2.41
2023-02-02T16:12:59.091Z,2.38
2023-02-02T16:16:47.668Z,2.36
2023-02-02T16:20:51.324Z,2.32
2023-02-02T16:24:53.228Z,2.23
2023-02-02T16:28:51.314Z,2.13
2023-02-02T16:32:51.301Z,2.10
2023-02-02T16:36:49.213Z,2.10
2023-02-02T16:40:47.229Z,2.11
2023-02-02T16:44:58.184Z,2.13
2023-02-02T16:49:12.304Z,2.15
2023-02-02T16:53:14.240Z,2.18
2023-02-02T16:57:15.302Z,2.21
2023-02-02T17:01:16.096Z,2.23
2023-02-02T17:05:49.238Z,2.27
2023-02-02T17:09:50.192Z,2.29
2023-02-02T17:13:48.321Z,2.31
2023-02-02T17:17:46.143Z,2.32
2023-02-02T17:21:44.257Z,2.33
2023-02-02T17:25:45.126Z,2.33
2023-02-02T17:29:43.152Z,2.31
2023-02-02T17:33:42.126Z,2.32
2023-02-02T17:37:40.564Z,2.34
2023-02-02T17:41:38.214Z,2.37
2023-02-02T17:45:45.320Z,2.38
2023-02-02T17:49:43.081Z,2.41
2023-02-02T17:53:41.115Z,2.43
2023-02-02T17:57:39.134Z,2.43
2023-02-02T18:01:39.239Z,2.43
2023-02-02T18:05:38.097Z,2.45
2023-02-02T18:09:41.089Z,2.45
2023-02-02T18:13:39.142Z,2.44
2023-02-02T18:17:37.158Z,2.44
2023-02-02T18:21:37.101Z,2.44
2023-02-02T18:25:35.164Z,2.43
2023-02-02T18:29:33.115Z,2.42
2023-02-02T18:33:31.088Z,2.40
2023-02-02T18:37:29.136Z,2.38
2023-02-02T18:41:31.103Z,2.34
2023-02-02T18:45:29.113Z,2.29
2023-02-02T18:49:27.096Z,2.24
2023-02-02T18:53:25.032Z,2.22
2023-02-02T18:57:23.151Z,2.20
2023-02-02T19:01:22.083Z,2.18
2023-02-02T19:05:37.026Z,2.18
2023-02-02T19:09:35.029Z,2.16
2023-02-02T19:13:34.068Z,2.15
2023-02-02T19:17:37.996Z,2.12
2023-02-02T19:21:35.989Z,2.08
2023-02-02T19:25:34.021Z,2.05
2023-02-02T19:29:38.006Z,2.00
2023-02-02T19:33:35.927Z,1.93
2023-02-02T19:37:41.972Z,1.82
2023-02-02T19:41:40.969Z,1.72
2023-02-02T19:45:44.434Z,1.64
2023-02-02T19:49:50.914Z,1.59
2023-02-02T19:53:53.101Z,1.56
2023-02-02T19:57:50.906Z,1.55
2023-02-02T20:01:52.934Z,1.56
2023-02-02T20:05:56.958Z,1.58
2023-02-02T20:09:54.943Z,1.60
2023-02-02T20:13:58.893Z,1.61
2023-02-02T20:17:57.998Z,1.64
2023-02-02T20:22:00.930Z,1.69
2023-02-02T20:25:58.933Z,1.73
2023-02-02T20:29:58.907Z,1.74
2023-02-02T20:34:01.913Z,1.74
2023-02-02T20:37:59.847Z,1.74
2023-02-02T20:41:58.856Z,1.76
2023-02-02T20:45:56.879Z,1.75
2023-02-02T20:49:54.929Z,1.73
2023-02-02T20:53:52.860Z,1.70
2023-02-02T20:57:53.051Z,1.68
2023-02-02T21:01:50.846Z,1.67
2023-02-02T21:05:48.840Z,1.65
2023-02-02T21:09:46.816Z,1.65
2023-02-02T21:13:44.803Z,1.67
2023-02-02T21:17:42.793Z,1.68
2023-02-02T21:21:40.827Z,1.69
2023-02-02T21:25:38.797Z,1.69
2023-02-02T21:29:37.913Z,1.71
2023-02-02T21:33:35.883Z,1.72
2023-02-02T21:37:33.780Z,1.67
2023-02-02T21:41:31.835Z,1.66
2023-02-02T21:45:36.221Z,1.65
2023-02-02T21:49:41.816Z,1.67
2023-02-02T21:53:40.787Z,1.67
2023-02-02T21:57:58.731Z,1.65
2023-02-02T22:01:56.746Z,1.64
2023-02-02T22:05:54.766Z,1.62
2023-02-02T22:09:58.762Z,1.61
2023-02-02T22:13:56.731Z,1.60
2023-02-02T22:17:55.725Z,1.56
2023-02-02T22:21:53.722Z,1.54
2023-02-02T22:25:52.746Z,1.52
2023-02-02T22:29:50.761Z,1.48
2023-02-02T22:33:48.782Z,1.40
2023-02-02T22:37:46.691Z,1.33
2023-02-02T22:41:47.115Z,1.23
2023-02-02T22:45:44.727Z,1.15
2023-02-02T22:49:43.618Z,1.08
2023-02-02T22:53:41.734Z,1.01
2023-02-02T22:57:39.638Z,0.93
2023-02-02T23:01:37.685Z,0.86
2023-02-02T23:05:36.791Z,0.79
2023-02-02T23:09:34.668Z,0.73
2023-02-02T23:13:32.755Z,0.67
2023-02-02T23:17:30.660Z,0.61
2023-02-02T23:21:28.723Z,0.53
2023-02-02T23:25:28.638Z,0.47
2023-02-02T23:29:26.635Z,0.43
2023-02-02T23:33:24.644Z,0.39
2023-02-02T23:37:22.734Z,0.34
2023-02-02T23:41:20.665Z,0.29
2023-02-02T23:45:18.624Z,0.24
2023-02-02T23:49:16.589Z,0.20
2023-02-02T23:53:14.664Z,0.15
2023-02-02T23:57:13.613Z,0.11
